Time;durP1;ratioP1;P1;durP2;ratioP2;P2;SDS_P1;SDS_P2;PMS_P1;PMS_P2;Temp;Humidity;BMP_temperature;BMP_pressure;BME280_temperature;BME280_humidity;BME280_pressure;Samples;Min_cycle;Max_cycle;Signal;HPM_P1;HPM_P2
2023/08/29 00:02:18;;;;;;;9.95;7.32;;;16.00;99.90;;;;;;5108832;28;20237;-48
2023/08/29 00:04:43;;;;;;;8.65;7.20;;;15.90;99.90;;;;;;5108829;28;20231;-48
2023/08/29 00:07:09;;;;;;;9.80;7.53;;;15.80;99.90;;;;;;5108730;28;20173;-49
2023/08/29 00:09:35;;;;;;;7.70;6.40;;;15.80;99.90;;;;;;5108758;28;20163;-49
2023/08/29 00:12:00;;;;;;;9.52;6.88;;;15.80;99.90;;;;;;5109357;28;20204;-48
2023/08/29 00:14:26;;;;;;;10.07;7.85;;;15.80;99.90;;;;;;5108570;28;20208;-49
2023/08/29 00:16:51;;;;;;;10.60;7.70;;;15.70;99.90;;;;;;5108575;28;20645;-49
2023/08/29 00:19:17;;;;;;;8.15;7.15;;;15.70;99.90;;;;;;5108539;28;20647;-48
2023/08/29 00:21:42;;;;;;;9.27;8.15;;;15.60;99.90;;;;;;5108708;28;20656;-48
2023/08/29 00:24:08;;;;;;;11.07;8.82;;;15.80;99.90;;;;;;5108528;28;20205;-47
2023/08/29 00:26:34;;;;;;;10.00;9.00;;;15.30;99.90;;;;;;5108619;28;20169;-47
2023/08/29 00:29:00;;;;;;;11.48;9.23;;;15.60;99.90;;;;;;5108807;28;20633;-47
2023/08/29 00:31:25;;;;;;;11.35;9.57;;;15.60;99.90;;;;;;5108308;28;20202;-47
2023/08/29 00:33:53;;;;;;;12.35;8.43;;;15.70;99.90;;;;;;5108162;28;20258;-47
2023/08/29 00:36:18;;;;;;;10.48;9.45;;;15.70;99.90;;;;;;5108524;28;20585;-47
2023/08/29 00:38:44;;;;;;;10.52;9.30;;;15.30;99.90;;;;;;5108424;28;20164;-47
2023/08/29 00:41:10;;;;;;;11.15;9.20;;;15.60;99.90;;;;;;5108341;28;20176;-47
2023/08/29 00:43:37;;;;;;;12.70;9.07;;;15.80;99.90;;;;;;5108110;28;20217;-47
2023/08/29 00:46:04;;;;;;;10.75;8.93;;;15.60;99.90;;;;;;5095957;28;20173;-48
2023/08/29 00:48:30;;;;;;;10.10;8.43;;;15.60;99.90;;;;;;5095068;28;20173;-48
2023/08/29 00:50:57;;;;;;;10.52;9.23;;;15.50;99.90;;;;;;5094370;28;20179;-47
2023/08/29 00:53:23;;;;;;;10.70;9.10;;;;;;;;;;5094178;28;20200;-48
2023/08/29 00:55:49;;;;;;;10.48;8.82;;;15.50;99.90;;;;;;5094198;28;20169;-48
2023/08/29 00:58:15;;;;;;;10.63;8.05;;;15.50;99.90;;;;;;5094222;28;20172;-48
2023/08/29 01:00:41;;;;;;;11.55;8.45;;;15.50;99.90;;;;;;5094166;28;20652;-48
2023/08/29 01:03:07;;;;;;;9.55;8.50;;;15.60;99.90;;;;;;5094242;28;20177;-48
2023/08/29 01:05:33;;;;;;;11.93;8.63;;;;;;;;;;5092780;28;20572;-47
2023/08/29 01:08:00;;;;;;;13.32;8.95;;;15.60;99.90;;;;;;5094465;28;20177;-48
2023/08/29 01:10:33;;;;;;;10.93;8.48;;;15.60;99.90;;;;;;5092702;28;20537;-49
2023/08/29 01:13:24;;;;;;;9.73;8.82;;;15.60;99.90;;;;;;5094536;28;20204;-49
2023/08/29 01:15:51;;;;;;;10.10;9.07;;;15.40;99.90;;;;;;5093869;28;20169;-49
2023/08/29 01:18:21;;;;;;;10.45;8.32;;;15.50;99.90;;;;;;5093811;28;20168;-49
2023/08/29 01:20:49;;;;;;;11.43;9.85;;;15.40;99.90;;;;;;5093756;28;20201;-48
2023/08/29 01:23:29;;;;;;;11.23;9.90;;;15.50;99.90;;;;;;5093756;28;20176;-47
2023/08/29 01:26:15;;;;;;;19.95;10.30;;;15.50;99.90;;;;;;5093711;28;20239;-47
2023/08/29 01:28:45;;;;;;;16.58;11.13;;;15.50;99.90;;;;;;5093731;28;20173;-48
2023/08/29 01:31:11;;;;;;;15.88;11.02;;;15.60;99.90;;;;;;5093602;28;20165;-47
2023/08/29 01:33:38;;;;;;;13.60;10.98;;;15.60;99.90;;;;;;5093490;28;20208;-48
2023/08/29 01:36:04;;;;;;;11.07;9.93;;;15.50;99.90;;;;;;5093410;28;20564;-48
2023/08/29 01:38:30;;;;;;;11.90;10.70;;;15.50;99.90;;;;;;5093931;28;20625;-48
2023/08/29 01:40:56;;;;;;;14.48;11.70;;;15.40;99.90;;;;;;5093409;28;20252;-48
2023/08/29 01:43:21;;;;;;;12.70;10.88;;;15.40;99.90;;;;;;5093211;28;20258;-48
2023/08/29 01:45:47;;;;;;;14.45;11.30;;;15.50;99.90;;;;;;5093551;28;20184;-48
2023/08/29 01:48:13;;;;;;;16.45;12.57;;;15.50;99.90;;;;;;5093257;28;20618;-48
2023/08/29 01:50:40;;;;;;;13.43;11.98;;;15.50;99.90;;;;;;5093170;28;20999;-48
2023/08/29 01:53:06;;;;;;;13.60;12.20;;;15.50;99.90;;;;;;5093244;28;20197;-48
2023/08/29 01:55:33;;;;;;;14.93;12.75;;;15.60;99.90;;;;;;5093666;28;20207;-48
2023/08/29 01:57:59;;;;;;;15.18;12.50;;;15.50;99.90;;;;;;5092604;28;20639;-48
2023/08/29 02:00:26;;;;;;;12.95;11.65;;;15.60;99.90;;;;;;5093032;28;20724;-48
2023/08/29 02:02:51;;;;;;;13.25;11.93;;;15.60;99.90;;;;;;5093107;28;20219;-48
2023/08/29 02:05:17;;;;;;;15.50;12.00;;;15.60;99.90;;;;;;5092973;28;20165;-49
2023/08/29 02:07:42;;;;;;;14.57;12.43;;;15.60;99.90;;;;;;5092959;28;20188;-48
2023/08/29 02:10:09;;;;;;;13.85;12.50;;;15.60;99.90;;;;;;5092834;28;20161;-48
2023/08/29 02:12:34;;;;;;;13.50;12.10;;;15.50;99.90;;;;;;5092904;28;20177;-48
2023/08/29 02:15:00;;;;;;;13.75;12.32;;;15.60;99.90;;;;;;5093182;28;20176;-48
2023/08/29 02:17:27;;;;;;;17.73;12.43;;;15.60;99.90;;;;;;5092974;28;20641;-48
2023/08/29 02:19:52;;;;;;;15.38;12.50;;;15.50;99.90;;;;;;5092616;28;20205;-47
2023/08/29 02:22:18;;;;;;;14.55;12.98;;;15.50;99.90;;;;;;5092583;28;20191;-48
2023/08/29 02:24:47;;;;;;;14.77;13.02;;;15.50;99.90;;;;;;5092573;28;20209;-47
2023/08/29 02:27:13;;;;;;;13.63;12.32;;;15.50;99.90;;;;;;5092791;28;20182;-48
2023/08/29 02:29:38;;;;;;;14.25;12.82;;;15.40;99.90;;;;;;5092519;28;20165;-48
2023/08/29 02:32:04;;;;;;;13.68;12.27;;;;;;;;;;5092563;28;20656;-47
2023/08/29 02:34:30;;;;;;;14.25;12.68;;;15.40;99.90;;;;;;5092690;28;20262;-47
2023/08/29 02:36:55;;;;;;;13.93;12.63;;;15.40;99.90;;;;;;5092396;28;20523;-46
2023/08/29 02:39:21;;;;;;;16.27;13.10;;;15.40;99.90;;;;;;5092269;28;20630;-44
2023/08/29 02:41:47;;;;;;;14.45;13.05;;;15.40;99.90;;;;;;5107200;28;20184;-45
2023/08/29 02:44:13;;;;;;;13.90;12.55;;;15.50;99.90;;;;;;5110732;28;20220;-46
2023/08/29 02:46:39;;;;;;;16.30;13.35;;;;;;;;;;5110846;28;20172;-45
2023/08/29 02:49:05;;;;;;;13.48;12.27;;;;;;;;;;5110888;28;20169;-45
2023/08/29 02:51:30;;;;;;;13.85;12.55;;;15.40;99.90;;;;;;5111157;28;20625;-45
2023/08/29 02:53:56;;;;;;;13.32;12.07;;;;;;;;;;5110563;28;20208;-45
2023/08/29 02:56:22;;;;;;;14.45;12.90;;;15.40;99.90;;;;;;5110773;28;20204;-45
2023/08/29 02:58:49;;;;;;;14.25;12.27;;;;;;;;;;5110663;28;20175;-46
2023/08/29 03:01:14;;;;;;;15.20;13.02;;;15.40;99.90;;;;;;5110894;27;20229;-46
2023/08/29 03:03:40;;;;;;;14.55;12.45;;;15.30;99.90;;;;;;5110593;28;20173;-46
2023/08/29 03:06:05;;;;;;;14.48;12.95;;;15.20;99.90;;;;;;5110679;28;20180;-46
2023/08/29 03:08:31;;;;;;;14.38;12.30;;;15.30;99.90;;;;;;5110756;28;20582;-46
2023/08/29 03:11:00;;;;;;;15.38;13.48;;;15.30;99.90;;;;;;5110493;28;20188;-46
2023/08/29 03:13:26;;;;;;;15.90;12.88;;;15.20;99.90;;;;;;5110360;28;20250;-46
2023/08/29 03:15:51;;;;;;;14.85;13.32;;;15.20;99.90;;;;;;5110442;28;20172;-46
2023/08/29 03:18:17;;;;;;;15.50;13.88;;;15.20;99.90;;;;;;5110433;28;20217;-46
2023/08/29 03:20:43;;;;;;;14.75;13.25;;;15.30;99.90;;;;;;5110375;28;20161;-46
2023/08/29 03:23:10;;;;;;;15.98;14.30;;;15.30;99.90;;;;;;5110483;28;20617;-46
2023/08/29 03:25:36;;;;;;;16.73;14.68;;;15.30;99.90;;;;;;5110365;28;20165;-46
2023/08/29 03:28:02;;;;;;;16.52;14.82;;;15.30;99.90;;;;;;5110849;28;20168;-46
2023/08/29 03:30:28;;;;;;;17.63;15.65;;;15.30;99.90;;;;;;5110728;28;20204;-46
2023/08/29 03:32:54;;;;;;;15.07;13.57;;;;;;;;;;5110124;28;20227;-45
2023/08/29 03:35:20;;;;;;;16.88;15.10;;;15.20;99.90;;;;;;5110281;28;20621;-46
2023/08/29 03:37:46;;;;;;;16.73;14.93;;;15.20;99.90;;;;;;5110094;28;20165;-46
2023/08/29 03:40:12;;;;;;;16.35;14.70;;;15.20;99.90;;;;;;5110152;28;20196;-46
2023/08/29 03:42:39;;;;;;;16.83;15.30;;;15.20;99.90;;;;;;5110209;28;20281;-46
2023/08/29 03:45:05;;;;;;;17.80;15.98;;;15.20;99.90;;;;;;5110033;28;20219;-46
2023/08/29 03:47:33;;;;;;;16.52;14.93;;;15.20;99.90;;;;;;5110465;28;20253;-46
2023/08/29 03:49:58;;;;;;;16.83;15.13;;;15.20;99.90;;;;;;5110760;28;20176;-46
2023/08/29 03:52:26;;;;;;;17.70;15.80;;;15.20;99.90;;;;;;5110141;28;20167;-46
2023/08/29 03:54:55;;;;;;;17.45;15.55;;;15.10;99.90;;;;;;5110143;28;20292;-46
2023/08/29 03:57:28;;;;;;;17.85;16.05;;;15.20;99.90;;;;;;5110051;28;20169;-46
2023/08/29 03:59:54;;;;;;;21.00;16.73;;;;;;;;;;5110223;28;20537;-46
2023/08/29 04:02:20;;;;;;;17.85;15.57;;;15.10;99.90;;;;;;5110001;28;20164;-46
2023/08/29 04:04:50;;;;;;;19.13;16.55;;;15.10;99.90;;;;;;5110146;28;20172;-46
2023/08/29 04:07:16;;;;;;;20.52;16.63;;;15.20;99.90;;;;;;5109721;28;20568;-46
2023/08/29 04:09:41;;;;;;;19.85;16.10;;;15.10;99.90;;;;;;5109954;28;20161;-46
2023/08/29 04:12:10;;;;;;;19.02;16.67;;;15.10;99.90;;;;;;5109883;28;20169;-46
2023/08/29 04:14:36;;;;;;;20.20;15.75;;;15.10;99.90;;;;;;5109897;28;20613;-46
2023/08/29 04:17:03;;;;;;;20.95;16.25;;;;;;;;;;5109752;28;20168;-46
2023/08/29 04:19:29;;;;;;;24.02;15.90;;;15.10;99.90;;;;;;5110669;28;20172;-46
2023/08/29 04:21:55;;;;;;;21.05;17.17;;;;;;;;;;5113651;28;20229;-46
2023/08/29 04:24:21;;;;;;;20.58;16.45;;;;;;;;;;5113974;28;20225;-46
2023/08/29 04:26:47;;;;;;;24.42;18.05;;;15.00;99.90;;;;;;5113839;28;20206;-46
2023/08/29 04:29:12;;;;;;;20.95;17.80;;;;;;;;;;5113549;28;20617;-46
2023/08/29 04:31:39;;;;;;;22.38;17.55;;;;;;;;;;5113544;28;20168;-46
2023/08/29 04:34:04;;;;;;;19.90;16.88;;;15.00;99.90;;;;;;5113633;28;20208;-46
2023/08/29 04:36:30;;;;;;;23.98;18.98;;;;;;;;;;5114010;28;20500;-46
2023/08/29 04:38:56;;;;;;;20.25;17.30;;;;;;;;;;5113357;28;20576;-46
2023/08/29 04:41:22;;;;;;;23.23;17.25;;;15.10;99.90;;;;;;5113191;28;20165;-45
2023/08/29 04:43:48;;;;;;;22.13;17.65;;;;;;;;;;5112966;28;20300;-45
2023/08/29 04:46:13;;;;;;;22.60;18.48;;;15.10;99.90;;;;;;5113492;28;20242;-45
2023/08/29 04:48:39;;;;;;;18.92;16.67;;;;;;;;;;5113279;28;20165;-45
2023/08/29 04:51:05;;;;;;;24.20;16.83;;;;;;;;;;5113021;28;20164;-46
2023/08/29 04:53:32;;;;;;;19.88;17.83;;;;;;;;;;5113511;27;20209;-46
2023/08/29 04:56:02;;;;;;;19.75;16.73;;;;;;;;;;5113393;28;20165;-47
2023/08/29 04:58:28;;;;;;;18.88;16.88;;;15.00;99.90;;;;;;5113321;27;20206;-46
2023/08/29 05:00:54;;;;;;;19.73;17.63;;;14.90;99.90;;;;;;5112858;28;20341;-47
2023/08/29 05:03:21;;;;;;;20.00;17.88;;;14.90;99.90;;;;;;5113181;28;20259;-46
2023/08/29 05:05:47;;;;;;;20.67;16.95;;;15.00;99.90;;;;;;5112977;28;20213;-46
2023/08/29 05:08:12;;;;;;;21.92;18.02;;;15.00;99.90;;;;;;5113204;28;20586;-46
2023/08/29 05:10:38;;;;;;;23.23;17.27;;;14.90;99.90;;;;;;5112881;28;20639;-47
2023/08/29 05:13:04;;;;;;;21.60;17.63;;;14.90;99.90;;;;;;5112662;28;20218;-47
2023/08/29 05:15:31;;;;;;;19.67;17.60;;;;;;;;;;5113091;28;20185;-47
2023/08/29 05:17:57;;;;;;;19.60;17.50;;;14.90;99.90;;;;;;5112967;27;20684;-47
2023/08/29 05:20:22;;;;;;;23.23;17.42;;;15.00;99.90;;;;;;5112616;28;20260;-46
2023/08/29 05:22:49;;;;;;;25.35;18.88;;;;;;;;;;5112669;28;20167;-46
2023/08/29 05:25:14;;;;;;;24.25;19.05;;;15.00;99.90;;;;;;5112661;28;20196;-46
2023/08/29 05:27:40;;;;;;;21.98;19.27;;;;;;;;;;5112379;28;20207;-47
2023/08/29 05:30:07;;;;;;;28.85;20.05;;;14.90;99.90;;;;;;5112371;28;20169;-46
2023/08/29 05:32:33;;;;;;;22.33;18.95;;;15.00;99.90;;;;;;5112218;28;20176;-46
2023/08/29 05:34:59;;;;;;;27.52;19.63;;;14.90;99.90;;;;;;5112719;28;20513;-46
2023/08/29 05:37:24;;;;;;;21.88;19.17;;;14.90;99.90;;;;;;5112196;28;20157;-46
2023/08/29 05:39:50;;;;;;;27.80;19.88;;;14.90;99.90;;;;;;5112023;28;20173;-46
2023/08/29 05:42:16;;;;;;;20.77;17.85;;;15.00;99.90;;;;;;5112409;28;20173;-46
2023/08/29 05:44:42;;;;;;;24.88;19.25;;;15.00;99.90;;;;;;5111950;28;20222;-47
2023/08/29 05:47:07;;;;;;;23.35;19.85;;;15.10;99.90;;;;;;5112067;28;20624;-47
2023/08/29 05:49:34;;;;;;;22.85;18.77;;;15.10;99.90;;;;;;5111974;28;20169;-46
2023/08/29 05:51:59;;;;;;;26.30;19.70;;;15.10;99.90;;;;;;5112327;28;20217;-46
2023/08/29 05:54:25;;;;;;;25.13;19.55;;;15.20;99.90;;;;;;5111787;28;20212;-46
2023/08/29 05:56:50;;;;;;;25.73;19.63;;;15.20;99.90;;;;;;5112284;28;20620;-46
2023/08/29 05:59:16;;;;;;;32.30;19.80;;;15.30;99.90;;;;;;5111781;27;20172;-46
2023/08/29 06:01:42;;;;;;;25.73;20.65;;;;;;;;;;5111883;28;20752;-47
2023/08/29 06:04:08;;;;;;;27.70;19.27;;;15.30;99.90;;;;;;5111863;28;20217;-47
2023/08/29 06:06:35;;;;;;;23.20;19.20;;;;;;;;;;5111911;28;20535;-46
2023/08/29 06:09:02;;;;;;;25.60;19.85;;;;;;;;;;5111888;28;20632;-46
2023/08/29 06:11:29;;;;;;;26.88;20.52;;;15.40;99.90;;;;;;5112246;28;20164;-46
2023/08/29 06:13:55;;;;;;;25.13;20.45;;;;;;;;;;5111674;28;20193;-47
2023/08/29 06:16:21;;;;;;;30.13;21.35;;;;;;;;;;5111493;28;20172;-46
2023/08/29 06:18:47;;;;;;;25.92;22.08;;;15.70;99.90;;;;;;5111315;28;20799;-46
2023/08/29 06:21:12;;;;;;;26.63;20.63;;;15.60;99.90;;;;;;5111349;28;20176;-46
2023/08/29 06:23:38;;;;;;;24.67;20.65;;;15.70;99.90;;;;;;5111403;28;20169;-45
2023/08/29 06:26:04;;;;;;;28.33;21.45;;;15.70;99.90;;;;;;5111447;28;20215;-46
2023/08/29 06:28:31;;;;;;;27.35;20.25;;;;;;;;;;5111925;28;20179;-45
2023/08/29 06:30:57;;;;;;;23.70;20.33;;;;;;;;;;5111858;28;20172;-45
2023/08/29 06:33:24;;;;;;;27.80;21.13;;;15.80;99.90;;;;;;5111095;28;20630;-45
2023/08/29 06:35:49;;;;;;;26.15;19.60;;;15.90;99.90;;;;;;5111226;28;20160;-46
2023/08/29 06:38:15;;;;;;;30.00;21.35;;;15.80;99.90;;;;;;5111055;28;20168;-45
2023/08/29 06:40:41;;;;;;;24.38;21.15;;;15.80;99.90;;;;;;5111205;28;20183;-46
2023/08/29 06:43:07;;;;;;;24.58;20.08;;;;;;;;;;5110293;28;20173;-46
2023/08/29 06:45:32;;;;;;;29.70;21.67;;;15.80;99.90;;;;;;5109342;28;20211;-45
2023/08/29 06:47:58;;;;;;;29.63;22.13;;;;;;;;;;5111354;28;20533;-46
2023/08/29 06:50:24;;;;;;;28.17;22.48;;;15.90;99.90;;;;;;5110805;28;20613;-46
2023/08/29 06:52:50;;;;;;;25.38;21.35;;;15.80;99.90;;;;;;5110537;28;20566;-46
2023/08/29 06:55:18;;;;;;;28.40;22.73;;;15.80;99.90;;;;;;5111032;28;20176;-45
2023/08/29 06:57:44;;;;;;;30.63;23.15;;;15.80;99.90;;;;;;5111014;28;20167;-46
2023/08/29 07:00:13;;;;;;;27.38;24.30;;;15.90;99.90;;;;;;5110854;28;20570;-46
2023/08/29 07:02:38;;;;;;;30.00;24.60;;;16.00;99.90;;;;;;5110595;28;20168;-46
2023/08/29 07:05:04;;;;;;;32.55;25.17;;;;;;;;;;5110625;28;20620;-46
2023/08/29 07:07:30;;;;;;;32.55;24.92;;;16.20;99.90;;;;;;5111303;28;20199;-46
2023/08/29 07:09:55;;;;;;;32.75;25.63;;;16.10;99.90;;;;;;5110461;28;20200;-46
2023/08/29 07:12:21;;;;;;;30.10;24.88;;;16.20;99.90;;;;;;5109165;28;20260;-45
2023/08/29 07:14:46;;;;;;;28.17;23.40;;;16.30;99.90;;;;;;5110345;28;20321;-46
2023/08/29 07:17:12;;;;;;;27.45;23.13;;;16.20;99.90;;;;;;5109207;28;20175;-48
2023/08/29 07:19:38;;;;;;;31.52;22.63;;;;;;;;;;5110106;28;20235;-45
2023/08/29 07:22:04;;;;;;;30.48;24.70;;;;;;;;;;5110355;28;20573;-47
2023/08/29 07:24:30;;;;;;;29.23;23.83;;;16.50;99.90;;;;;;5110830;28;20188;-45
2023/08/29 07:26:56;;;;;;;33.22;25.25;;;16.40;99.90;;;;;;5110369;28;20199;-45
2023/08/29 07:29:22;;;;;;;26.10;23.27;;;16.50;99.90;;;;;;5110305;28;20161;-45
2023/08/29 07:31:48;;;;;;;29.27;23.17;;;16.50;99.90;;;;;;5108633;28;20260;-45
2023/08/29 07:34:15;;;;;;;27.65;23.70;;;16.50;99.90;;;;;;5110186;28;20741;-46
2023/08/29 07:36:41;;;;;;;32.53;24.25;;;;;;;;;;5110410;28;20176;-48
2023/08/29 07:39:07;;;;;;;30.63;25.73;;;;;;;;;;5109003;28;20179;-47
2023/08/29 07:41:33;;;;;;;26.40;23.45;;;;;;;;;;5108993;28;20177;-46
2023/08/29 07:43:58;;;;;;;28.58;25.55;;;16.80;99.90;;;;;;5110343;28;20252;-45
2023/08/29 07:46:24;;;;;;;28.35;25.27;;;17.00;99.90;;;;;;5110139;28;20161;-46
2023/08/29 07:48:50;;;;;;;31.83;25.90;;;17.00;99.90;;;;;;5110205;28;20225;-45
2023/08/29 07:51:16;;;;;;;30.52;26.15;;;;;;;;;;5110345;28;20168;-45
2023/08/29 07:53:42;;;;;;;31.88;25.42;;;;;;;;;;5109913;28;20566;-45
2023/08/29 07:56:08;;;;;;;34.72;27.25;;;;;;;;;;5113280;28;20161;-46
2023/08/29 07:58:34;;;;;;;33.33;26.00;;;17.10;99.90;;;;;;5114120;28;20621;-46
2023/08/29 08:01:01;;;;;;;29.55;26.17;;;17.30;99.90;;;;;;5114775;28;20184;-46
2023/08/29 08:03:27;;;;;;;34.20;27.75;;;17.60;99.90;;;;;;5114425;28;20760;-49
2023/08/29 08:05:54;;;;;;;37.70;27.75;;;17.50;99.90;;;;;;5113861;28;20168;-46
2023/08/29 08:08:20;;;;;;;35.75;28.25;;;;;;;;;;5114119;28;20180;-47
2023/08/29 08:10:45;;;;;;;46.25;30.73;;;17.50;99.90;;;;;;5113924;28;20530;-48
2023/08/29 08:13:11;;;;;;;49.25;36.08;;;17.60;99.90;;;;;;5113710;27;20293;-52
2023/08/29 08:15:36;;;;;;;46.30;36.20;;;17.80;99.90;;;;;;5113764;28;20747;-49
2023/08/29 08:18:02;;;;;;;47.25;36.75;;;;;;;;;;5113708;28;20182;-45
2023/08/29 08:20:28;;;;;;;42.60;33.25;;;18.10;99.90;;;;;;5114111;28;20165;-45
2023/08/29 08:22:54;;;;;;;40.92;32.85;;;18.10;99.90;;;;;;5114005;28;20169;-46
2023/08/29 08:25:19;;;;;;;37.80;32.28;;;18.20;99.90;;;;;;5113893;28;20173;-46
2023/08/29 08:27:45;;;;;;;38.08;32.45;;;18.40;99.90;;;;;;5113612;28;20587;-46
2023/08/29 08:30:10;;;;;;;34.75;30.98;;;18.30;99.90;;;;;;5113600;28;20677;-46
2023/08/29 08:32:37;;;;;;;38.78;33.67;;;18.50;99.90;;;;;;5113645;28;20640;-45
2023/08/29 08:35:05;;;;;;;41.45;33.92;;;18.50;99.90;;;;;;5113261;28;20236;-45
2023/08/29 08:37:33;;;;;;;42.50;34.92;;;18.60;99.90;;;;;;5113717;28;20175;-45
2023/08/29 08:40:00;;;;;;;41.67;32.58;;;;;;;;;;5113905;28;20221;-45
2023/08/29 08:42:27;;;;;;;36.38;32.30;;;18.80;99.90;;;;;;5113676;28;20571;-45
2023/08/29 08:44:54;;;;;;;37.47;33.35;;;;;;;;;;5113066;28;20235;-46
2023/08/29 08:47:19;;;;;;;42.67;35.00;;;19.20;99.90;;;;;;5113263;28;20544;-46
2023/08/29 08:49:45;;;;;;;40.40;34.22;;;19.40;99.90;;;;;;5113065;28;20164;-46
2023/08/29 08:52:12;;;;;;;38.40;32.25;;;19.30;99.90;;;;;;5113108;28;20243;-45
2023/08/29 08:54:38;;;;;;;35.92;32.15;;;19.60;99.90;;;;;;5112908;28;20660;-45
2023/08/29 08:57:04;;;;;;;40.17;31.98;;;19.70;99.90;;;;;;5112741;28;20644;-46
2023/08/29 08:59:30;;;;;;;35.70;31.00;;;;;;;;;;5113872;28;20653;-45
2023/08/29 09:01:56;;;;;;;37.35;32.58;;;20.00;99.90;;;;;;5113389;28;20280;-46
2023/08/29 09:04:22;;;;;;;39.28;32.65;;;;;;;;;;5113120;27;20195;-45
2023/08/29 09:06:49;;;;;;;37.75;31.60;;;20.00;99.90;;;;;;5112932;28;20168;-46
2023/08/29 09:09:23;;;;;;;39.05;34.83;;;20.20;99.90;;;;;;5112978;28;20172;-45
2023/08/29 09:11:53;;;;;;;38.83;33.38;;;20.20;99.90;;;;;;5112746;28;20172;-46
2023/08/29 09:14:19;;;;;;;34.65;29.88;;;20.30;99.90;;;;;;5112755;28;20303;-46
2023/08/29 09:16:45;;;;;;;34.75;30.67;;;20.30;99.90;;;;;;5111842;28;20204;-46
2023/08/29 09:19:12;;;;;;;34.92;29.38;;;20.30;99.90;;;;;;5112660;28;20207;-46
2023/08/29 09:21:42;;;;;;;33.60;30.23;;;20.50;99.90;;;;;;5112602;28;20168;-46
2023/08/29 09:24:12;;;;;;;33.50;29.95;;;20.70;99.90;;;;;;5112453;28;20176;-46
2023/08/29 09:26:40;;;;;;;36.22;32.42;;;20.70;99.90;;;;;;5112845;28;20213;-45
2023/08/29 09:29:19;;;;;;;38.83;33.58;;;20.30;99.90;;;;;;5112547;28;20172;-46
2023/08/29 09:31:49;;;;;;;36.28;32.17;;;20.30;99.90;;;;;;5112537;27;20168;-46
2023/08/29 09:34:27;;;;;;;33.10;29.70;;;20.40;99.90;;;;;;5112086;28;20254;-46
2023/08/29 09:36:54;;;;;;;36.33;32.38;;;20.50;99.90;;;;;;5112538;28;20168;-46
2023/08/29 09:39:20;;;;;;;34.35;30.70;;;20.70;99.90;;;;;;5112573;28;20177;-49
2023/08/29 09:42:09;;;;;;;39.08;31.38;;;20.50;99.90;;;;;;5112393;28;20217;-46
2023/08/29 09:44:37;;;;;;;38.92;31.33;;;20.30;99.90;;;;;;5110692;28;20738;-46
2023/08/29 09:47:04;;;;;;;36.45;32.50;;;;;;;;;;5112059;28;20215;-46
2023/08/29 09:49:32;;;;;;;36.25;31.13;;;;;;;;;;5112568;28;20218;-47
2023/08/29 09:52:01;;;;;;;38.63;33.83;;;20.70;99.90;;;;;;5112330;28;20198;-45
2023/08/29 09:54:29;;;;;;;36.10;32.20;;;;;;;;;;5112305;28;20212;-45
2023/08/29 09:56:59;;;;;;;37.78;33.80;;;20.60;99.90;;;;;;5112122;28;20173;-45
2023/08/29 09:59:27;;;;;;;36.95;33.00;;;20.40;99.90;;;;;;5111764;28;20161;-45
2023/08/29 10:01:53;;;;;;;36.50;32.63;;;20.30;99.90;;;;;;5111664;28;20239;-45
2023/08/29 10:04:21;;;;;;;39.60;35.25;;;;;;;;;;5110328;28;20180;-45
2023/08/29 10:06:49;;;;;;;38.30;33.78;;;20.10;99.90;;;;;;5111575;28;20172;-46
2023/08/29 10:09:15;;;;;;;36.28;32.13;;;20.00;99.90;;;;;;5111880;28;20204;-46
2023/08/29 10:11:42;;;;;;;33.47;29.95;;;20.00;99.90;;;;;;5111561;28;20579;-47
2023/08/29 10:14:09;;;;;;;32.00;28.15;;;19.90;99.90;;;;;;5111790;28;20200;-46
2023/08/29 10:16:36;;;;;;;33.92;28.65;;;20.10;99.90;;;;;;5111351;28;20708;-46
2023/08/29 10:19:01;;;;;;;33.28;29.70;;;20.50;99.90;;;;;;5110675;28;20249;-45
2023/08/29 10:21:28;;;;;;;30.17;27.02;;;20.60;99.90;;;;;;5111887;28;20184;-46
2023/08/29 10:23:54;;;;;;;27.98;24.90;;;20.80;99.90;;;;;;5111609;28;20168;-47
2023/08/29 10:26:21;;;;;;;29.58;24.67;;;20.70;99.90;;;;;;5111271;28;20713;-47
2023/08/29 10:28:48;;;;;;;30.05;25.08;;;20.90;99.90;;;;;;5111214;28;20644;-45
2023/08/29 10:31:15;;;;;;;28.20;23.80;;;21.00;99.90;;;;;;5111453;28;20175;-46
2023/08/29 10:33:41;;;;;;;26.27;23.33;;;20.80;99.90;;;;;;5109723;28;20207;-47
2023/08/29 10:36:10;;;;;;;26.23;22.98;;;20.90;99.90;;;;;;5111117;28;20169;-45
2023/08/29 10:38:40;;;;;;;32.88;25.10;;;;;;;;;;5111054;28;20180;-46
2023/08/29 10:41:10;;;;;;;23.75;21.17;;;;;;;;;;5111320;28;20255;-45
2023/08/29 10:43:37;;;;;;;24.02;21.42;;;;;;;;;;5110737;28;20702;-49
2023/08/29 10:46:11;;;;;;;24.90;19.25;;;20.40;99.90;;;;;;5094780;28;20184;-46
2023/08/29 10:48:41;;;;;;;22.88;19.23;;;20.50;99.90;;;;;;5090828;28;20161;-48
2023/08/29 10:51:14;;;;;;;20.90;18.70;;;20.60;99.90;;;;;;5090395;28;20169;-47
2023/08/29 10:53:46;;;;;;;22.80;20.45;;;20.60;99.90;;;;;;5090082;28;20216;-48
2023/08/29 10:56:13;;;;;;;23.65;18.77;;;;;;;;;;5090263;28;20206;-48
2023/08/29 10:58:40;;;;;;;23.52;17.80;;;;;;;;;;5089048;28;20602;-47
2023/08/29 11:01:36;;;;;;;19.73;17.42;;;20.80;99.90;;;;;;5090312;28;20248;-48
2023/08/29 11:04:12;;;;;;;19.80;17.75;;;20.90;99.90;;;;;;5090430;28;20177;-48
2023/08/29 11:06:54;;;;;;;22.48;16.17;;;;;;;;;;5090519;28;20165;-47
2023/08/29 11:09:21;;;;;;;19.42;14.02;;;20.90;99.90;;;;;;5090260;28;20165;-48
2023/08/29 11:12:07;;;;;;;17.02;13.48;;;21.10;99.90;;;;;;5090369;28;20171;-47
2023/08/29 11:14:53;;;;;;;21.58;13.45;;;21.30;99.90;;;;;;5088723;28;20212;-47
2023/08/29 11:17:25;;;;;;;14.25;12.27;;;21.40;99.90;;;;;;5090306;28;20637;-48
2023/08/29 11:20:01;;;;;;;15.43;12.88;;;21.30;99.90;;;;;;5090107;28;20165;-47
2023/08/29 11:22:30;;;;;;;13.95;12.40;;;21.20;99.90;;;;;;5090762;28;20181;-48
2023/08/29 11:24:57;;;;;;;15.50;13.13;;;21.00;99.90;;;;;;5090403;28;20171;-48
2023/08/29 11:27:24;;;;;;;25.50;14.40;;;20.90;99.90;;;;;;5090040;28;20175;-48
2023/08/29 11:29:53;;;;;;;16.73;14.55;;;21.10;99.90;;;;;;5089768;28;20592;-48
2023/08/29 11:32:20;;;;;;;16.90;14.55;;;;;;;;;;5088751;28;20264;-50
2023/08/29 11:34:51;;;;;;;15.07;13.32;;;21.40;99.90;;;;;;5089793;28;20336;-49
2023/08/29 11:37:17;;;;;;;20.80;13.93;;;;;;;;;;5090222;28;20158;-49
2023/08/29 11:39:52;;;;;;;17.55;14.48;;;21.50;99.90;;;;;;5089773;28;20172;-48
2023/08/29 11:42:20;;;;;;;17.20;14.88;;;21.60;99.90;;;;;;5089912;28;20175;-48
2023/08/29 11:44:46;;;;;;;17.05;13.60;;;21.70;99.90;;;;;;5089525;28;20639;-48
2023/08/29 11:47:14;;;;;;;16.42;13.77;;;;;;;;;;5089580;28;20169;-48
2023/08/29 11:49:41;;;;;;;20.58;15.32;;;21.40;99.90;;;;;;5089868;28;20176;-49
2023/08/29 11:52:07;;;;;;;18.02;14.65;;;21.60;99.90;;;;;;5089969;28;20183;-45
2023/08/29 11:54:44;;;;;;;18.55;14.70;;;21.50;99.90;;;;;;5089504;28;20193;-47
2023/08/29 11:57:12;;;;;;;21.40;14.52;;;21.60;99.90;;;;;;5089649;28;20184;-48
2023/08/29 11:59:42;;;;;;;18.13;14.40;;;21.80;99.90;;;;;;5089415;28;20162;-48
2023/08/29 12:02:11;;;;;;;12.10;8.85;;;21.70;99.90;;;;;;5089548;28;20626;-47
2023/08/29 12:04:41;;;;;;;12.82;8.77;;;21.60;99.90;;;;;;5089576;28;20252;-49
2023/08/29 12:07:17;;;;;;;9.77;7.30;;;21.50;99.90;;;;;;5089709;28;20173;-49
2023/08/29 12:09:44;;;;;;;10.38;7.10;;;21.60;99.90;;;;;;5089485;28;20169;-48
2023/08/29 12:12:35;;;;;;;7.70;6.72;;;21.60;99.90;;;;;;5089743;28;20578;-48
2023/08/29 12:15:01;;;;;;;6.80;6.07;;;21.60;99.90;;;;;;5089219;28;20681;-48
2023/08/29 12:17:39;;;;;;;9.57;6.95;;;21.60;99.90;;;;;;5089699;28;20170;-47
2023/08/29 12:20:12;;;;;;;9.38;6.78;;;21.60;99.90;;;;;;5089325;28;20708;-47
2023/08/29 12:22:38;;;;;;;9.13;5.80;;;21.70;99.90;;;;;;5089581;28;20180;-46
2023/08/29 12:25:05;;;;;;;6.70;4.38;;;21.50;99.90;;;;;;5089116;28;20638;-46
2023/08/29 12:27:31;;;;;;;7.50;4.82;;;21.10;99.90;;;;;;5089322;28;20180;-47
2023/08/29 12:29:56;;;;;;;7.20;5.53;;;21.00;99.90;;;;;;5089612;28;20264;-46
2023/08/29 12:32:29;;;;;;;7.35;4.95;;;20.90;99.90;;;;;;5089249;28;20176;-46
2023/08/29 12:34:57;;;;;;;5.82;4.82;;;20.80;99.90;;;;;;5089630;28;20205;-47
2023/08/29 12:37:24;;;;;;;9.68;6.47;;;20.60;99.90;;;;;;5089448;28;20161;-47
2023/08/29 12:39:50;;;;;;;8.60;6.05;;;20.50;99.90;;;;;;5089210;28;20164;-47
2023/08/29 12:42:16;;;;;;;9.60;6.47;;;20.50;99.90;;;;;;5092232;28;20161;-47
2023/08/29 12:44:42;;;;;;;12.40;6.38;;;;;;;;;;5092522;28;20657;-47
2023/08/29 12:47:08;;;;;;;8.30;7.38;;;;;;;;;;5092873;28;20173;-48
2023/08/29 12:49:35;;;;;;;10.90;7.53;;;20.10;99.90;;;;;;5092624;28;20536;-48
2023/08/29 12:52:01;;;;;;;7.15;6.35;;;20.10;99.90;;;;;;5092654;28;20161;-48